CYIO

Pond Inlet Airport

Pond Inlet, Canada
METAR CYIO 231400Z AUTO 15008KT 9SM CLR M34/M37 A2946 RMK SLP988
Observed Flight Rules
Feb-23 @ 14:00 UTC (30 minutes ago) Visual Flight Rules
Wind Visibility Clouds
150° at 8 knots 9 miles
  • Clear skies
Temperatures Readings
Current -34°C / -29°F
Dewpoint -37°C / -35°F
Humidity 74%
Altimeter 29.46" Hg
Pressure 998.8 hPa
Elevation 57
METAR CYIO 231400Z AUTO 15008KT 9SM CLR M34/M37 A2946 RMK SLP988
Observed Flight Rules
Feb-23 @ 14:00 UTC
(30 minutes ago)
VFR
Wind Visibility
150° at 8 knots 9 miles
Clouds
  • Clear skies
Temperature Dewpoint
-34°C / -29°F -37°C / -35°F
Humidity Altimeter Pressure
74% 29.46" Hg 998.8 hPa